Time;durP1;ratioP1;P1;durP2;ratioP2;P2;SDS_P1;SDS_P2;PMS_P1;PMS_P2;Temp;Humidity;BMP_temperature;BMP_pressure;BME280_temperature;BME280_humidity;BME280_pressure;Samples;Min_cycle;Max_cycle;Signal;HPM_P1;HPM_P2
2023/03/18 00:00:43;;;;;;;31.88;18.85;;;10.70;99.90;;;;;;5014346;28;20586;-75
2023/03/18 00:03:10;;;;;;;31.00;18.63;;;10.70;99.90;;;;;;5002389;28;20054;-76
2023/03/18 00:05:35;;;;;;;34.15;18.98;;;10.60;99.90;;;;;;4995024;28;20035;-75
2023/03/18 00:08:03;;;;;;;36.30;19.65;;;10.60;99.90;;;;;;4996021;28;20069;-76
2023/03/18 00:10:29;;;;;;;35.28;19.90;;;10.60;99.90;;;;;;5011145;28;20053;-76
2023/03/18 00:12:55;;;;;;;33.95;19.40;;;10.60;99.90;;;;;;5014586;28;20034;-76
2023/03/18 00:15:20;;;;;;;37.78;21.23;;;10.50;99.90;;;;;;5014984;28;20083;-76
2023/03/18 00:17:47;;;;;;;36.80;20.23;;;10.50;99.90;;;;;;5000880;28;20022;-76
2023/03/18 00:20:15;;;;;;;30.40;20.05;;;10.50;99.90;;;;;;5003075;28;20085;-76
2023/03/18 00:22:42;;;;;;;33.60;19.20;;;10.50;99.90;;;;;;4993800;28;20413;-76
2023/03/18 00:25:10;;;;;;;32.20;18.67;;;10.40;99.90;;;;;;5005433;28;20026;-75
2023/03/18 00:27:36;;;;;;;35.28;18.73;;;10.40;99.90;;;;;;5014343;28;20022;-75
2023/03/18 00:30:04;;;;;;;32.08;20.25;;;10.40;99.90;;;;;;5014956;28;20061;-76
2023/03/18 00:32:30;;;;;;;33.22;18.98;;;10.40;99.90;;;;;;5014696;28;20026;-76
2023/03/18 00:34:56;;;;;;;32.70;19.50;;;10.40;99.90;;;;;;5001130;28;20079;-76
2023/03/18 00:37:32;;;;;;;35.28;19.08;;;10.40;99.90;;;;;;5014724;28;20078;-76
2023/03/18 00:40:06;;;;;;;32.38;20.40;;;10.40;99.90;;;;;;5010348;28;20026;-76
2023/03/18 00:42:46;;;;;;;32.35;19.80;;;10.40;99.90;;;;;;5007078;28;20057;-76
2023/03/18 00:45:13;;;;;;;36.58;19.08;;;10.40;99.90;;;;;;5014771;28;20112;-75
2023/03/18 00:47:39;;;;;;;31.52;19.27;;;10.30;99.90;;;;;;4993911;28;20173;-76
2023/03/18 00:50:07;;;;;;;31.88;18.48;;;10.30;99.90;;;;;;4978176;28;20509;-75
2023/03/18 00:52:33;;;;;;;36.28;19.35;;;10.30;99.90;;;;;;5005007;28;20504;-75
2023/03/18 00:54:59;;;;;;;34.00;18.85;;;10.30;99.90;;;;;;5009898;28;20030;-76
2023/03/18 00:57:26;;;;;;;34.00;19.42;;;10.30;99.90;;;;;;5002737;28;20024;-75
2023/03/18 00:59:52;;;;;;;32.80;18.58;;;10.30;99.90;;;;;;5012145;28;20048;-75
2023/03/18 01:02:18;;;;;;;32.10;18.48;;;10.30;99.90;;;;;;4999941;28;20017;-75
2023/03/18 01:04:44;;;;;;;31.60;18.27;;;10.30;99.90;;;;;;5014651;28;20034;-75
2023/03/18 01:07:11;;;;;;;31.52;17.77;;;10.30;99.90;;;;;;4999921;28;20082;-76
2023/03/18 01:09:39;;;;;;;34.90;18.15;;;10.30;99.90;;;;;;5014206;28;20013;-76
2023/03/18 01:12:09;;;;;;;34.92;19.40;;;10.30;99.90;;;;;;5014474;28;20086;-76
2023/03/18 01:14:36;;;;;;;28.95;18.35;;;10.30;99.90;;;;;;5014867;28;20069;-76
2023/03/18 01:17:03;;;;;;;31.38;17.55;;;10.30;99.90;;;;;;4993658;28;20030;-75
2023/03/18 01:19:29;;;;;;;32.05;18.15;;;10.30;99.90;;;;;;4998554;28;20148;-75
2023/03/18 01:21:55;;;;;;;29.77;18.42;;;10.30;99.90;;;;;;4996631;28;20149;-75
2023/03/18 01:24:21;;;;;;;35.58;18.50;;;10.30;99.90;;;;;;5015917;28;20026;-75
2023/03/18 01:26:47;;;;;;;31.73;18.70;;;10.30;99.90;;;;;;4986811;28;20413;-75
2023/03/18 01:29:13;;;;;;;36.15;18.50;;;10.30;99.90;;;;;;4992435;28;20038;-75
2023/03/18 01:31:38;;;;;;;33.10;19.77;;;10.30;99.90;;;;;;5014115;28;20038;-76
2023/03/18 01:34:04;;;;;;;35.33;20.52;;;10.30;99.90;;;;;;5001902;28;20068;-76
2023/03/18 01:36:30;;;;;;;33.42;20.10;;;10.40;99.90;;;;;;4994551;28;20379;-76
2023/03/18 01:38:56;;;;;;;34.90;21.80;;;10.40;99.90;;;;;;4976836;28;20030;-76
2023/03/18 01:41:24;;;;;;;35.65;21.75;;;10.40;99.90;;;;;;5002378;28;20099;-75
2023/03/18 01:43:51;;;;;;;37.33;22.13;;;10.40;99.90;;;;;;4998256;28;20477;-75
2023/03/18 01:46:36;;;;;;;33.63;21.10;;;10.40;99.90;;;;;;5003143;28;20048;-75
2023/03/18 01:49:04;;;;;;;;;;;10.50;99.90;;;;;;5004761;28;20393;-75
2023/03/18 01:51:31;;;;;;;37.90;21.38;;;10.40;99.90;;;;;;5011472;28;20011;-75
2023/03/18 01:54:00;;;;;;;38.10;21.35;;;10.40;99.90;;;;;;5014204;28;20547;-75
2023/03/18 01:56:26;;;;;;;36.38;21.23;;;10.40;99.90;;;;;;4993109;28;20208;-76
2023/03/18 01:58:56;;;;;;;34.30;21.58;;;10.40;99.90;;;;;;5001834;28;20041;-75
2023/03/18 02:01:53;;;;;;;38.50;23.02;;;10.40;99.90;;;;;;5000545;28;20022;-75
2023/03/18 02:04:22;;;;;;;41.80;23.25;;;10.40;99.90;;;;;;4992663;28;20049;-75
2023/03/18 02:06:48;;;;;;;41.92;22.88;;;10.40;99.90;;;;;;5007459;28;20129;-75
2023/03/18 02:09:14;;;;;;;40.67;23.75;;;10.40;99.90;;;;;;5002553;28;20519;-75
2023/03/18 02:11:44;;;;;;;39.25;23.65;;;10.40;99.90;;;;;;5013532;28;20018;-75
2023/03/18 02:14:13;;;;;;;38.97;23.38;;;10.40;99.90;;;;;;5004857;28;20221;-75
2023/03/18 02:17:03;;;;;;;39.13;22.58;;;10.40;99.90;;;;;;5004852;28;20062;-75
2023/03/18 02:20:04;;;;;;;36.30;22.50;;;10.50;99.90;;;;;;4997636;28;20109;-75
2023/03/18 02:22:34;;;;;;;39.05;23.75;;;10.50;99.90;;;;;;4997278;28;20385;-75
2023/03/18 02:25:24;;;;;;;39.95;23.85;;;10.40;99.90;;;;;;5009114;28;20029;-75
2023/03/18 02:28:08;;;;;;;39.63;23.77;;;10.50;99.90;;;;;;5004040;28;20049;-75
2023/03/18 02:30:40;;;;;;;38.85;24.77;;;10.50;99.90;;;;;;5002796;28;20036;-75
2023/03/18 02:33:07;;;;;;;39.85;23.58;;;10.50;99.90;;;;;;5011998;28;20025;-75
2023/03/18 02:35:34;;;;;;;42.60;24.60;;;10.50;99.90;;;;;;5007170;28;20030;-75
2023/03/18 02:38:00;;;;;;;41.28;24.75;;;10.50;99.90;;;;;;4998266;28;20018;-76
2023/03/18 02:40:33;;;;;;;41.75;25.27;;;10.50;99.90;;;;;;5016568;28;20034;-74
2023/03/18 02:43:32;;;;;;;39.58;24.50;;;10.50;99.90;;;;;;5002686;28;20030;-75
2023/03/18 02:46:08;;;;;;;38.97;24.10;;;10.60;99.90;;;;;;4973967;28;20046;-75
2023/03/18 02:48:37;;;;;;;35.75;23.63;;;10.60;99.90;;;;;;4996515;28;20047;-74
2023/03/18 02:51:04;;;;;;;41.17;24.40;;;10.60;99.90;;;;;;5002917;28;20093;-75
2023/03/18 02:53:30;;;;;;;39.30;23.25;;;10.60;99.90;;;;;;5015812;28;20362;-75
2023/03/18 02:55:56;;;;;;;41.70;23.88;;;10.60;99.90;;;;;;5003936;28;20037;-76
2023/03/18 02:58:21;;;;;;;40.08;22.42;;;10.60;99.90;;;;;;4998139;28;20072;-76
2023/03/18 03:00:48;;;;;;;37.55;21.90;;;10.60;99.90;;;;;;5005318;28;20517;-75
2023/03/18 03:03:14;;;;;;;37.47;22.17;;;10.60;99.90;;;;;;4993119;28;20077;-75
2023/03/18 03:05:40;;;;;;;36.17;21.05;;;10.70;99.90;;;;;;5006103;28;20093;-75
2023/03/18 03:08:05;;;;;;;34.63;20.73;;;10.70;99.90;;;;;;4998245;28;20045;-75
2023/03/18 03:10:31;;;;;;;36.40;20.50;;;10.70;99.90;;;;;;5014219;28;20024;-76
2023/03/18 03:12:58;;;;;;;35.10;19.33;;;10.70;99.90;;;;;;5015647;28;20018;-76
2023/03/18 03:15:25;;;;;;;33.42;19.92;;;10.80;99.90;;;;;;5002299;28;20041;-75
2023/03/18 03:17:51;;;;;;;38.05;19.58;;;10.80;99.90;;;;;;4997561;28;20037;-76
2023/03/18 03:20:17;;;;;;;33.17;19.50;;;10.80;99.90;;;;;;5015770;28;20063;-75
2023/03/18 03:22:43;;;;;;;34.28;19.08;;;10.80;99.90;;;;;;5002600;28;20030;-75
2023/03/18 03:25:10;;;;;;;32.88;19.45;;;10.90;99.90;;;;;;4995015;28;20042;-75
2023/03/18 03:27:36;;;;;;;32.80;19.55;;;10.80;99.90;;;;;;4995954;28;20062;-74
2023/03/18 03:30:08;;;;;;;33.80;19.52;;;10.90;99.90;;;;;;5002654;28;20509;-75
2023/03/18 03:32:34;;;;;;;31.65;18.25;;;10.90;99.90;;;;;;5005527;28;20033;-75
2023/03/18 03:35:00;;;;;;;30.92;18.90;;;10.90;99.90;;;;;;4998754;28;20073;-75
2023/03/18 03:37:26;;;;;;;33.53;19.30;;;10.90;99.90;;;;;;4995639;28;20454;-76
2023/03/18 03:39:52;;;;;;;33.20;19.73;;;10.90;99.90;;;;;;4995991;28;20019;-75
2023/03/18 03:42:18;;;;;;;34.28;19.55;;;10.90;99.90;;;;;;5009444;28;20026;-76
2023/03/18 03:44:45;;;;;;;33.53;20.35;;;10.90;99.90;;;;;;4995785;28;20037;-76
2023/03/18 03:47:11;;;;;;;39.75;20.58;;;10.90;99.90;;;;;;5013891;28;20251;-76
2023/03/18 03:49:36;;;;;;;35.05;20.13;;;10.90;99.90;;;;;;5001879;28;20038;-76
2023/03/18 03:52:02;;;;;;;35.13;21.23;;;10.90;99.90;;;;;;5006694;28;20034;-75
2023/03/18 03:54:28;;;;;;;31.45;20.40;;;10.90;99.90;;;;;;5009053;28;20436;-76
2023/03/18 03:56:54;;;;;;;35.22;21.42;;;10.90;99.90;;;;;;4996758;28;20054;-76
2023/03/18 03:59:19;;;;;;;35.88;20.40;;;10.90;99.90;;;;;;5015339;28;20024;-76
2023/03/18 04:01:45;;;;;;;36.53;20.80;;;10.80;99.90;;;;;;5004280;28;20474;-76
2023/03/18 04:04:10;;;;;;;34.28;20.65;;;10.80;99.90;;;;;;4999210;28;20021;-76
2023/03/18 04:06:36;;;;;;;36.95;21.88;;;10.80;99.90;;;;;;5006015;28;20471;-76
2023/03/18 04:09:03;;;;;;;38.58;22.48;;;10.80;99.90;;;;;;5009350;28;20109;-76
2023/03/18 04:11:28;;;;;;;34.63;22.05;;;10.80;99.90;;;;;;4995846;28;20521;-76
2023/03/18 04:13:54;;;;;;;37.00;21.95;;;10.80;99.90;;;;;;4995154;28;20057;-76
2023/03/18 04:16:20;;;;;;;35.45;21.98;;;10.80;99.90;;;;;;4995597;28;20077;-75
2023/03/18 04:18:46;;;;;;;37.78;21.48;;;10.70;99.90;;;;;;4995518;28;20026;-75
2023/03/18 04:21:11;;;;;;;38.33;21.02;;;10.80;99.90;;;;;;5009319;28;20099;-75
2023/03/18 04:23:37;;;;;;;35.53;21.08;;;10.80;99.90;;;;;;5004274;28;20022;-75
2023/03/18 04:26:04;;;;;;;39.28;22.42;;;10.70;99.90;;;;;;4999937;28;20097;-75
2023/03/18 04:28:30;;;;;;;38.17;22.05;;;10.70;99.90;;;;;;5002554;28;20159;-75
2023/03/18 04:30:57;;;;;;;37.45;22.27;;;10.70;99.90;;;;;;5014685;28;20124;-75
2023/03/18 04:33:22;;;;;;;38.42;22.48;;;10.60;99.90;;;;;;5014074;28;20018;-75
2023/03/18 04:35:48;;;;;;;35.17;22.40;;;10.70;99.90;;;;;;5013775;28;20452;-75
2023/03/18 04:38:14;;;;;;;33.45;22.75;;;10.60;99.90;;;;;;5000933;28;20026;-75
2023/03/18 04:40:41;;;;;;;39.80;23.58;;;10.60;99.90;;;;;;5014509;28;20028;-76
2023/03/18 04:43:08;;;;;;;36.63;23.98;;;10.60;99.90;;;;;;5000650;28;20152;-74
2023/03/18 04:45:34;;;;;;;34.88;23.65;;;10.60;99.90;;;;;;5007798;28;20022;-75
2023/03/18 04:48:00;;;;;;;41.90;24.00;;;10.60;99.90;;;;;;5004011;28;20105;-75
2023/03/18 04:50:27;;;;;;;39.80;23.55;;;10.60;99.90;;;;;;4984966;28;20029;-75
2023/03/18 04:52:53;;;;;;;39.28;23.33;;;10.60;99.90;;;;;;4997780;28;20041;-75
2023/03/18 04:55:20;;;;;;;39.72;23.48;;;10.60;99.90;;;;;;5006613;28;20042;-75
2023/03/18 04:57:47;;;;;;;38.83;23.00;;;10.60;99.90;;;;;;5007940;28;20014;-75
2023/03/18 05:00:16;;;;;;;35.03;21.77;;;10.60;99.90;;;;;;5014988;28;20053;-75
2023/03/18 05:02:42;;;;;;;36.17;22.48;;;10.60;99.90;;;;;;5002712;28;20516;-76
2023/03/18 05:05:09;;;;;;;35.92;22.05;;;10.60;99.90;;;;;;4994150;28;20022;-76
2023/03/18 05:07:35;;;;;;;38.72;22.55;;;10.60;99.90;;;;;;4984603;28;20088;-76
2023/03/18 05:10:08;;;;;;;37.55;21.83;;;10.50;99.90;;;;;;4994856;28;20014;-75
2023/03/18 05:12:35;;;;;;;31.98;21.42;;;10.50;99.90;;;;;;5004532;28;20041;-75
2023/03/18 05:15:01;;;;;;;37.53;22.85;;;10.50;99.90;;;;;;5012130;28;20041;-76
2023/03/18 05:17:27;;;;;;;39.22;22.40;;;10.50;99.90;;;;;;4993727;28;20390;-75
2023/03/18 05:19:53;;;;;;;35.85;22.00;;;10.50;99.90;;;;;;4989279;28;20022;-75
2023/03/18 05:22:20;;;;;;;34.75;22.60;;;10.50;99.90;;;;;;5000091;28;20030;-75
2023/03/18 05:24:47;;;;;;;35.28;21.50;;;10.50;99.90;;;;;;5003595;28;20264;-75
2023/03/18 05:27:14;;;;;;;38.58;22.88;;;10.50;99.90;;;;;;5000900;28;20315;-75
2023/03/18 05:29:40;;;;;;;33.85;22.10;;;10.50;99.90;;;;;;5004782;28;20450;-76
2023/03/18 05:32:07;;;;;;;30.92;21.42;;;10.50;99.90;;;;;;5002988;28;20393;-75
2023/03/18 05:34:36;;;;;;;37.22;23.15;;;10.50;99.90;;;;;;5000626;28;20030;-75
2023/03/18 05:37:05;;;;;;;33.53;22.55;;;10.50;99.90;;;;;;5014530;28;20054;-76
2023/03/18 05:39:32;;;;;;;41.67;22.55;;;10.50;99.90;;;;;;5001189;28;20014;-76
2023/03/18 05:41:58;;;;;;;33.38;22.27;;;10.50;99.90;;;;;;5013683;28;20504;-75
2023/03/18 05:44:24;;;;;;;35.67;22.38;;;10.50;99.90;;;;;;5002145;28;20053;-76
2023/03/18 05:46:51;;;;;;;35.22;23.63;;;10.50;99.90;;;;;;5003232;28;20034;-76
2023/03/18 05:49:18;;;;;;;31.63;22.13;;;10.50;99.90;;;;;;5016803;28;20052;-76
2023/03/18 05:51:45;;;;;;;36.83;21.02;;;10.50;99.90;;;;;;5018734;28;20479;-76
2023/03/18 05:54:11;;;;;;;33.47;20.98;;;10.50;99.90;;;;;;5006457;28;20150;-75
2023/03/18 05:56:38;;;;;;;33.70;20.98;;;10.50;99.90;;;;;;5011761;28;20126;-75
2023/03/18 05:59:05;;;;;;;35.75;21.75;;;10.40;99.90;;;;;;4989126;28;20038;-76
2023/03/18 06:01:32;;;;;;;35.22;20.65;;;10.40;99.90;;;;;;4998211;28;20028;-76
2023/03/18 06:03:58;;;;;;;31.80;19.90;;;10.40;99.90;;;;;;5017941;28;20029;-76
2023/03/18 06:06:24;;;;;;;29.65;19.67;;;10.40;99.90;;;;;;5017528;28;20029;-76
2023/03/18 06:08:50;;;;;;;30.45;20.48;;;10.30;99.90;;;;;;5010052;28;20073;-76
2023/03/18 06:11:17;;;;;;;29.90;19.10;;;10.30;99.90;;;;;;4997811;28;20324;-76
2023/03/18 06:13:43;;;;;;;32.08;19.60;;;10.20;99.90;;;;;;5016851;28;20040;-76
2023/03/18 06:16:10;;;;;;;31.90;20.50;;;10.20;99.90;;;;;;5017577;28;20056;-76
2023/03/18 06:18:36;;;;;;;32.10;19.63;;;10.20;99.90;;;;;;5013499;28;20019;-76
2023/03/18 06:21:02;;;;;;;33.95;20.17;;;10.10;99.90;;;;;;5006628;28;20052;-76
2023/03/18 06:23:28;;;;;;;37.15;21.42;;;10.10;99.90;;;;;;5003795;28;20054;-75
2023/03/18 06:25:54;;;;;;;33.30;22.05;;;10.10;99.90;;;;;;5017567;28;20061;-75
2023/03/18 06:28:20;;;;;;;35.78;22.73;;;10.10;99.90;;;;;;5004592;28;20544;-75
2023/03/18 06:30:45;;;;;;;40.70;22.95;;;10.10;99.90;;;;;;5004616;28;20381;-75
2023/03/18 06:33:11;;;;;;;40.30;23.67;;;10.10;99.90;;;;;;5013999;28;20102;-75
2023/03/18 06:35:37;;;;;;;40.83;24.98;;;10.10;99.90;;;;;;5012186;28;20030;-76
2023/03/18 06:38:03;;;;;;;49.13;25.85;;;10.10;99.90;;;;;;5012925;28;20030;-76
2023/03/18 06:40:29;;;;;;;44.25;24.58;;;10.10;99.90;;;;;;5013496;28;20044;-75
2023/03/18 06:42:54;;;;;;;40.30;25.40;;;10.10;99.90;;;;;;5013344;28;20030;-75
2023/03/18 06:45:21;;;;;;;40.35;25.38;;;10.20;99.90;;;;;;5016431;28;20006;-75
2023/03/18 06:47:48;;;;;;;48.05;25.67;;;10.20;99.90;;;;;;4992547;28;20022;-75
2023/03/18 06:50:14;;;;;;;42.15;25.17;;;10.20;99.90;;;;;;4997519;28;20058;-75
2023/03/18 06:52:41;;;;;;;44.92;26.27;;;10.20;99.90;;;;;;5012930;28;20042;-75
2023/03/18 06:55:07;;;;;;;47.50;25.88;;;10.20;99.90;;;;;;4980019;28;20022;-76
2023/03/18 06:57:33;;;;;;;44.30;26.38;;;10.20;99.90;;;;;;5000006;28;20371;-75
2023/03/18 06:59:59;;;;;;;43.33;27.13;;;10.20;99.90;;;;;;5014997;28;20025;-75
2023/03/18 07:02:26;;;;;;;47.15;27.70;;;10.20;99.90;;;;;;5013733;28;20389;-75
2023/03/18 07:04:51;;;;;;;47.30;28.98;;;10.20;99.90;;;;;;5010190;28;20030;-75
2023/03/18 07:07:18;;;;;;;45.70;28.05;;;10.20;99.90;;;;;;5016388;28;20028;-76
2023/03/18 07:09:43;;;;;;;47.42;28.10;;;10.20;99.90;;;;;;5012266;28;20097;-76
2023/03/18 07:12:13;;;;;;;50.05;27.65;;;10.30;99.90;;;;;;4995183;28;20054;-76
2023/03/18 07:14:39;;;;;;;43.78;26.25;;;10.30;99.90;;;;;;5009604;28;20503;-76
2023/03/18 07:17:05;;;;;;;46.83;27.45;;;10.30;99.90;;;;;;5003845;28;20604;-76
2023/03/18 07:19:32;;;;;;;45.10;26.70;;;10.40;99.90;;;;;;4996019;28;20033;-75
2023/03/18 07:21:58;;;;;;;46.50;27.08;;;10.40;99.90;;;;;;5002235;28;20235;-76
2023/03/18 07:24:25;;;;;;;46.08;27.02;;;10.50;99.90;;;;;;5012997;28;20030;-75
2023/03/18 07:26:51;;;;;;;46.65;27.52;;;10.50;99.90;;;;;;4999485;28;20031;-75
2023/03/18 07:29:17;;;;;;;47.55;27.60;;;10.50;99.90;;;;;;5012433;28;20396;-75
2023/03/18 07:31:43;;;;;;;48.67;27.60;;;10.60;99.90;;;;;;5002055;28;20026;-75
2023/03/18 07:34:09;;;;;;;46.40;27.42;;;10.60;99.90;;;;;;5002854;28;20101;-75
2023/03/18 07:36:35;;;;;;;45.88;27.02;;;10.60;99.90;;;;;;5009565;28;20024;-75
2023/03/18 07:39:02;;;;;;;49.30;27.45;;;10.70;99.90;;;;;;5006597;28;20051;-76
2023/03/18 07:41:28;;;;;;;42.35;26.70;;;10.70;99.90;;;;;;4992432;28;20049;-76
2023/03/18 07:43:54;;;;;;;46.75;27.13;;;10.70;99.90;;;;;;4996173;28;20034;-76
2023/03/18 07:46:20;;;;;;;44.85;25.98;;;10.80;99.90;;;;;;5012340;28;20034;-76
2023/03/18 07:48:46;;;;;;;44.15;26.75;;;10.80;99.90;;;;;;5009904;28;20046;-75
2023/03/18 07:51:14;;;;;;;43.63;25.80;;;10.80;99.90;;;;;;5002748;28;20034;-75
2023/03/18 07:53:40;;;;;;;44.83;25.40;;;10.90;99.90;;;;;;5015795;28;20048;-75
2023/03/18 07:56:07;;;;;;;39.20;24.30;;;10.90;99.90;;;;;;5007158;28;20033;-75
2023/03/18 07:58:33;;;;;;;50.30;25.65;;;11.00;99.90;;;;;;5002938;28;20022;-75
2023/03/18 08:00:59;;;;;;;40.28;25.63;;;11.00;99.90;;;;;;4998814;28;20084;-75
2023/03/18 08:03:24;;;;;;;43.55;24.88;;;11.10;99.90;;;;;;5005752;28;20328;-75
2023/03/18 08:05:50;;;;;;;41.72;24.85;;;11.10;99.90;;;;;;5009619;28;20514;-76
2023/03/18 08:08:16;;;;;;;39.35;24.13;;;11.20;99.90;;;;;;5011860;28;20030;-76
2023/03/18 08:10:42;;;;;;;42.45;24.08;;;11.30;99.90;;;;;;5001574;28;20018;-76
2023/03/18 08:13:07;;;;;;;41.30;24.00;;;11.40;99.90;;;;;;5002026;28;20030;-75
2023/03/18 08:15:33;;;;;;;37.65;23.25;;;11.50;99.90;;;;;;5014178;28;20029;-76
2023/03/18 08:17:59;;;;;;;36.38;21.88;;;11.50;99.90;;;;;;5003051;28;20054;-76
2023/03/18 08:20:25;;;;;;;34.47;21.38;;;11.60;99.90;;;;;;5005556;28;20068;-76
2023/03/18 08:22:52;;;;;;;35.85;21.92;;;11.60;99.90;;;;;;5011290;28;20018;-76
2023/03/18 08:25:18;;;;;;;34.22;21.92;;;11.60;99.90;;;;;;4999052;28;20042;-75
2023/03/18 08:27:43;;;;;;;34.22;20.48;;;11.70;99.90;;;;;;4996062;28;20026;-76
2023/03/18 08:30:10;;;;;;;35.45;21.63;;;11.80;99.90;;;;;;4995081;28;20030;-76
2023/03/18 08:32:36;;;;;;;33.63;20.67;;;11.80;99.90;;;;;;4999770;28;20076;-76
2023/03/18 08:35:02;;;;;;;32.67;20.05;;;11.90;99.90;;;;;;4998349;28;20025;-76
2023/03/18 08:37:27;;;;;;;34.63;21.40;;;12.00;99.90;;;;;;4998061;28;20044;-77
2023/03/18 08:39:53;;;;;;;32.75;20.02;;;12.10;99.90;;;;;;4998764;28;20094;-74
2023/03/18 08:42:20;;;;;;;30.35;19.13;;;12.30;99.90;;;;;;5006547;28;20602;-76
2023/03/18 08:44:45;;;;;;;33.22;20.08;;;12.40;99.90;;;;;;5013330;28;20036;-75
2023/03/18 08:47:11;;;;;;;34.10;19.75;;;12.50;99.90;;;;;;5013540;28;20455;-75
2023/03/18 08:49:37;;;;;;;31.48;19.27;;;12.60;99.90;;;;;;5001140;28;20041;-74
2023/03/18 08:52:03;;;;;;;34.17;20.30;;;12.60;99.90;;;;;;5012649;28;20030;-76
2023/03/18 08:54:29;;;;;;;33.95;21.13;;;12.70;99.90;;;;;;5009875;28;20022;-75
2023/03/18 08:56:55;;;;;;;33.95;21.50;;;12.80;99.90;;;;;;5013891;28;20030;-76
2023/03/18 08:59:21;;;;;;;37.28;22.65;;;12.90;99.90;;;;;;5004435;28;20026;-75
2023/03/18 09:01:47;;;;;;;38.17;24.55;;;13.00;99.90;;;;;;5009427;28;20041;-75
2023/03/18 09:04:13;;;;;;;35.92;23.30;;;13.10;99.90;;;;;;4996516;28;20026;-74
2023/03/18 09:06:40;;;;;;;33.20;20.90;;;13.10;99.90;;;;;;5010465;28;20379;-75
2023/03/18 09:09:07;;;;;;;35.70;20.05;;;13.20;99.90;;;;;;5003299;28;20442;-75
2023/03/18 09:11:32;;;;;;;36.05;20.95;;;13.20;99.90;;;;;;5002221;28;20027;-75
2023/03/18 09:13:58;;;;;;;34.20;20.88;;;13.30;99.90;;;;;;5008212;28;20030;-75
2023/03/18 09:16:24;;;;;;;33.88;21.50;;;13.40;99.90;;;;;;5006794;28;20029;-76
2023/03/18 09:18:49;;;;;;;31.55;20.77;;;13.40;99.90;;;;;;5001860;28;20026;-76
2023/03/18 09:21:16;;;;;;;30.98;21.33;;;13.50;99.90;;;;;;5001453;28;20496;-76
2023/03/18 09:23:42;;;;;;;32.05;21.60;;;13.60;99.90;;;;;;4993683;28;20482;-76
2023/03/18 09:26:07;;;;;;;34.10;21.98;;;13.70;99.90;;;;;;4975406;28;20439;-75
2023/03/18 09:28:33;;;;;;;29.95;20.95;;;13.70;99.90;;;;;;4998529;28;20022;-76
2023/03/18 09:30:58;;;;;;;29.67;21.65;;;13.80;99.90;;;;;;4987615;28;20027;-76
2023/03/18 09:33:25;;;;;;;30.55;21.88;;;13.90;99.90;;;;;;5011980;28;20477;-75
2023/03/18 09:35:51;;;;;;;31.30;21.05;;;14.00;99.90;;;;;;5007146;28;20034;-74
2023/03/18 09:38:19;;;;;;;31.00;21.08;;;14.00;99.90;;;;;;5004452;28;20034;-75
2023/03/18 09:41:15;;;;;;;32.88;21.48;;;14.10;99.90;;;;;;5007024;28;20018;-75
2023/03/18 09:44:13;;;;;;;31.80;21.40;;;14.20;99.90;;;;;;4996813;28;20035;-75
2023/03/18 09:47:00;;;;;;;31.15;21.65;;;14.20;99.90;;;;;;5008503;28;20038;-74
2023/03/18 09:49:53;;;;;;;33.08;21.48;;;14.30;99.90;;;;;;4996730;28;20109;-75
2023/03/18 09:52:24;;;;;;;31.02;22.10;;;14.40;99.90;;;;;;4997657;28;20573;-76
2023/03/18 09:55:23;;;;;;;32.63;22.27;;;14.40;99.90;;;;;;5011939;28;20041;-75
2023/03/18 09:57:53;;;;;;;34.42;21.83;;;14.40;99.90;;;;;;5012061;28;20026;-74
2023/03/18 10:00:30;;;;;;;32.90;21.13;;;14.40;99.90;;;;;;4996723;28;20026;-74
2023/03/18 10:03:04;;;;;;;30.08;20.80;;;14.30;99.90;;;;;;5008333;28;20065;-75
2023/03/18 10:05:34;;;;;;;27.35;19.58;;;14.30;99.90;;;;;;5002726;28;20029;-75
2023/03/18 10:08:31;;;;;;;33.13;20.45;;;14.20;99.90;;;;;;5009993;28;20461;-74
2023/03/18 10:11:03;;;;;;;29.45;19.63;;;14.20;99.90;;;;;;5002712;28;20113;-74
2023/03/18 10:13:36;;;;;;;32.25;20.23;;;14.10;99.90;;;;;;5011909;28;20515;-74
2023/03/18 10:16:06;;;;;;;30.73;19.15;;;14.10;99.90;;;;;;5012329;28;20025;-75
2023/03/18 10:18:32;;;;;;;33.00;19.42;;;14.10;99.90;;;;;;5003016;28;20481;-75
2023/03/18 10:21:05;;;;;;;27.17;19.17;;;14.10;99.90;;;;;;4991227;28;20015;-75
2023/03/18 10:23:58;;;;;;;29.85;18.58;;;14.20;99.90;;;;;;4999354;28;20367;-74
2023/03/18 10:26:32;;;;;;;28.13;18.83;;;14.20;99.90;;;;;;5012800;28;20034;-74
2023/03/18 10:29:21;;;;;;;27.50;16.80;;;14.20;99.90;;;;;;5008108;28;20038;-75
2023/03/18 10:31:55;;;;;;;26.92;15.55;;;14.20;99.90;;;;;;4978740;28;20039;-75
2023/03/18 10:34:28;;;;;;;28.27;15.63;;;14.30;99.90;;;;;;4996432;28;20033;-74
2023/03/18 10:37:13;;;;;;;23.90;14.05;;;14.30;99.90;;;;;;5002375;28;20423;-74
2023/03/18 10:39:40;;;;;;;20.98;13.35;;;14.30;99.90;;;;;;5001802;28;20026;-75
2023/03/18 10:42:20;;;;;;;24.05;13.70;;;14.30;99.90;;;;;;5009199;28;20026;-75
2023/03/18 10:44:46;;;;;;;24.58;13.57;;;14.30;99.90;;;;;;4993561;28;20037;-74
2023/03/18 10:47:28;;;;;;;22.90;14.75;;;14.30;99.90;;;;;;5015938;28;20030;-74
2023/03/18 10:50:01;;;;;;;23.63;13.68;;;14.30;99.90;;;;;;5002478;28;20060;-74
2023/03/18 10:52:55;;;;;;;22.92;14.00;;;14.30;99.90;;;;;;5015651;28;20018;-74
2023/03/18 10:55:26;;;;;;;23.95;14.55;;;14.30;99.90;;;;;;5004541;28;20033;-74
2023/03/18 10:57:51;;;;;;;21.88;13.65;;;14.30;99.90;;;;;;5015739;28;20104;-74
2023/03/18 11:00:27;;;;;;;21.52;15.15;;;14.20;99.90;;;;;;4996801;28;20038;-75
2023/03/18 11:02:54;;;;;;;22.80;14.73;;;14.20;99.90;;;;;;4996302;28;20077;-74
2023/03/18 11:05:30;;;;;;;24.65;14.20;;;14.10;99.90;;;;;;5001782;28;20053;-74
2023/03/18 11:08:05;;;;;;;23.17;14.07;;;14.10;99.90;;;;;;5015479;28;20037;-74
2023/03/18 11:10:39;;;;;;;23.67;14.25;;;14.00;99.90;;;;;;4995193;28;20018;-74
2023/03/18 11:13:05;;;;;;;23.70;14.10;;;14.00;99.90;;;;;;4997000;28;20038;-73
2023/03/18 11:15:39;;;;;;;22.90;13.77;;;13.90;99.90;;;;;;5010433;28;20029;-74
2023/03/18 11:18:10;;;;;;;22.15;12.82;;;13.90;99.90;;;;;;4995817;28;20077;-74
2023/03/18 11:20:46;;;;;;;19.90;13.27;;;13.80;99.90;;;;;;5010197;28;20042;-75
2023/03/18 11:23:47;;;;;;;20.05;12.85;;;13.80;99.90;;;;;;4996508;28;20026;-74
2023/03/18 11:26:27;;;;;;;24.90;14.13;;;13.70;99.90;;;;;;5007699;28;20038;-73
2023/03/18 11:29:03;;;;;;;23.95;13.93;;;13.70;99.90;;;;;;5015195;28;20045;-74
2023/03/18 11:31:29;;;;;;;24.02;13.82;;;13.70;99.90;;;;;;4997368;28;20026;-74
2023/03/18 11:33:58;;;;;;;20.80;13.20;;;13.70;99.90;;;;;;4996576;28;20088;-74
2023/03/18 11:36:26;;;;;;;24.02;14.57;;;13.80;99.90;;;;;;5011967;28;20033;-74
2023/03/18 11:38:58;;;;;;;28.00;14.07;;;13.80;99.90;;;;;;5007074;28;20031;-73
2023/03/18 11:41:29;;;;;;;23.33;13.63;;;13.80;99.90;;;;;;4995248;28;20421;-73
2023/03/18 11:44:00;;;;;;;25.00;14.05;;;13.90;99.90;;;;;;5002483;28;20025;-73
2023/03/18 11:46:49;;;;;;;21.45;13.45;;;13.90;99.90;;;;;;4993372;28;20038;-74
2023/03/18 11:49:19;;;;;;;21.52;12.43;;;14.00;99.90;;;;;;4995280;28;20556;-73
2023/03/18 11:51:56;;;;;;;20.63;13.20;;;14.10;99.90;;;;;;5014412;28;20256;-73
2023/03/18 11:54:57;;;;;;;20.15;12.70;;;14.10;99.90;;;;;;5013493;28;20031;-74
2023/03/18 11:57:47;;;;;;;25.42;12.38;;;14.20;99.90;;;;;;4983611;28;20127;-74
2023/03/18 12:00:16;;;;;;;21.50;12.07;;;14.30;99.90;;;;;;4996995;28;20030;-77
2023/03/18 12:03:09;;;;;;;20.20;11.57;;;14.40;99.90;;;;;;4996772;28;20030;-76
2023/03/18 12:05:53;;;;;;;19.75;10.95;;;14.50;99.90;;;;;;5000917;28;20089;-77
2023/03/18 12:08:47;;;;;;;20.27;11.75;;;14.50;99.90;;;;;;5011213;28;20481;-76
2023/03/18 12:11:31;;;;;;;19.27;11.55;;;14.60;99.90;;;;;;5007451;28;20030;-75
2023/03/18 12:14:12;;;;;;;20.02;10.32;;;14.70;99.90;;;;;;5000799;28;20030;-76
2023/03/18 12:16:57;;;;;;;22.23;10.98;;;14.80;99.90;;;;;;5001162;28;20503;-76
2023/03/18 12:19:32;;;;;;;17.75;9.23;;;14.90;99.90;;;;;;5012382;28;20515;-77
2023/03/18 12:22:14;;;;;;;19.15;9.63;;;15.00;99.90;;;;;;5007792;28;20058;-75
2023/03/18 12:25:16;;;;;;;18.83;9.57;;;15.10;99.90;;;;;;5003790;28;20512;-74
2023/03/18 12:27:59;;;;;;;20.58;9.60;;;15.20;99.90;;;;;;4998171;28;20030;-74
2023/03/18 12:30:43;;;;;;;15.70;8.38;;;15.40;99.90;;;;;;5005308;28;20057;-75
2023/03/18 12:33:18;;;;;;;13.38;7.22;;;15.40;99.90;;;;;;4998892;28;20033;-76
2023/03/18 12:36:00;;;;;;;18.40;7.30;;;15.40;99.90;;;;;;5002748;28;20019;-76
2023/03/18 12:39:07;;;;;;;15.93;7.07;;;15.50;99.90;;;;;;5006239;28;20109;-75
2023/03/18 12:41:55;;;;;;;15.32;7.53;;;15.60;99.90;;;;;;5002116;28;20022;-74